Time;durP1;ratioP1;P1;durP2;ratioP2;P2;SDS_P1;SDS_P2;PMS_P1;PMS_P2;Temp;Humidity;BMP_temperature;BMP_pressure;BME280_temperature;BME280_humidity;BME280_pressure;Samples;Min_cycle;Max_cycle;Signal;HPM_P1;HPM_P2
2024/04/05 00:01:34;;;;;;;22.63;5.60;;;12.50;99.90;;;;;;5020615;28;20213;-79
2024/04/05 00:04:04;;;;;;;27.75;8.02;;;12.50;99.90;;;;;;5023107;28;20448;-80
2024/04/05 00:06:31;;;;;;;20.90;5.93;;;12.50;99.90;;;;;;5023625;28;20213;-79
2024/04/05 00:08:57;;;;;;;32.33;9.82;;;12.50;99.90;;;;;;5021329;28;20205;-80
2024/04/05 00:11:24;;;;;;;26.90;6.63;;;12.50;99.90;;;;;;5022791;28;20239;-80
2024/04/05 00:13:51;;;;;;;29.10;5.70;;;12.50;99.90;;;;;;5024989;28;20466;-81
2024/04/05 00:16:19;;;;;;;25.33;7.25;;;12.60;99.90;;;;;;5024798;28;20231;-79
2024/04/05 00:18:45;;;;;;;24.98;7.03;;;12.60;99.90;;;;;;5026286;28;20205;-81
2024/04/05 00:21:12;;;;;;;27.73;6.93;;;12.60;99.90;;;;;;5025922;28;20644;-79
2024/04/05 00:23:38;;;;;;;43.85;23.23;;;12.60;99.90;;;;;;5024834;28;20285;-78
2024/04/05 00:26:06;;;;;;;31.57;8.27;;;12.60;99.90;;;;;;5026542;28;20647;-80
2024/04/05 00:28:33;;;;;;;26.80;7.90;;;12.50;99.90;;;;;;5024455;28;20949;-80
2024/04/05 00:31:03;;;;;;;20.08;6.80;;;12.50;99.90;;;;;;5022934;28;20228;-80
2024/04/05 00:33:29;;;;;;;29.98;6.57;;;12.50;99.90;;;;;;5022494;28;20285;-79
2024/04/05 00:35:57;;;;;;;31.05;9.15;;;12.50;99.90;;;;;;5022773;28;20221;-81
2024/04/05 00:38:23;;;;;;;33.83;7.63;;;12.50;99.90;;;;;;5022994;28;20240;-79
2024/04/05 00:40:51;;;;;;;30.60;7.65;;;12.50;99.90;;;;;;5022454;28;20356;-79
2024/04/05 00:43:17;;;;;;;32.95;6.68;;;12.60;99.90;;;;;;5020664;28;20209;-81
2024/04/05 00:45:47;;;;;;;27.83;9.73;;;12.60;99.90;;;;;;5020566;28;20226;-80
2024/04/05 00:48:16;;;;;;;25.48;8.48;;;12.60;99.90;;;;;;5023193;28;20475;-80
2024/04/05 00:50:44;;;;;;;31.88;6.50;;;12.60;99.90;;;;;;5040172;28;20209;-79
2024/04/05 00:53:13;;;;;;;23.40;7.82;;;12.70;99.90;;;;;;5029783;28;20217;-79
2024/04/05 00:55:42;;;;;;;35.03;5.65;;;12.70;99.90;;;;;;5029099;28;20225;-80
2024/04/05 00:58:09;;;;;;;24.40;7.32;;;12.80;99.90;;;;;;5027651;28;20213;-79
2024/04/05 01:00:37;;;;;;;32.33;8.85;;;12.80;99.90;;;;;;5021723;28;20198;-79
2024/04/05 01:03:03;;;;;;;32.05;9.18;;;12.80;99.90;;;;;;5018878;28;20701;-79
2024/04/05 01:05:32;;;;;;;26.92;7.50;;;12.80;99.90;;;;;;5011932;28;20217;-80
2024/04/05 01:07:58;;;;;;;25.38;7.95;;;12.80;99.90;;;;;;5018862;28;20691;-80
2024/04/05 01:10:25;;;;;;;16.73;4.65;;;12.70;99.90;;;;;;5013949;28;20202;-80
2024/04/05 01:12:58;;;;;;;23.30;6.22;;;12.80;99.90;;;;;;5022409;28;20213;-79
2024/04/05 01:15:26;;;;;;;20.52;5.15;;;12.80;99.90;;;;;;5022237;28;20699;-79
2024/04/05 01:17:52;;;;;;;25.15;5.70;;;12.90;99.90;;;;;;5019412;28;20201;-80
2024/04/05 01:20:21;;;;;;;31.02;6.50;;;12.80;99.90;;;;;;5020310;28;20225;-79
2024/04/05 01:22:52;;;;;;;31.58;6.68;;;12.80;99.90;;;;;;5017978;28;20201;-79
2024/04/05 01:25:21;;;;;;;27.73;8.55;;;12.80;99.90;;;;;;5018737;28;20313;-80
2024/04/05 01:27:47;;;;;;;22.20;5.65;;;12.80;99.90;;;;;;5022743;28;20632;-80
2024/04/05 01:30:15;;;;;;;18.40;5.43;;;12.80;99.90;;;;;;5021955;28;20202;-80
2024/04/05 01:32:48;;;;;;;16.52;4.82;;;12.70;99.90;;;;;;5022738;28;20205;-80
2024/04/05 01:35:15;;;;;;;43.13;7.53;;;12.60;99.90;;;;;;5022200;28;20259;-80
2024/04/05 01:37:41;;;;;;;31.08;7.68;;;12.50;99.90;;;;;;5021766;28;20584;-80
2024/04/05 01:40:09;;;;;;;21.42;7.15;;;12.40;99.90;;;;;;5022820;28;20211;-80
2024/04/05 01:42:37;;;;;;;21.65;5.85;;;12.40;99.90;;;;;;5028890;28;20234;-80
2024/04/05 01:45:05;;;;;;;16.83;5.95;;;12.30;99.90;;;;;;5033021;28;20227;-80
2024/04/05 01:47:31;;;;;;;19.88;6.18;;;12.20;99.90;;;;;;5017516;28;20213;-80
2024/04/05 01:49:58;;;;;;;19.90;6.05;;;12.10;99.90;;;;;;5029687;28;20383;-80
2024/04/05 01:52:24;;;;;;;24.30;6.10;;;12.10;99.90;;;;;;5031220;28;20224;-78
2024/04/05 01:54:52;;;;;;;23.05;6.53;;;12.10;99.90;;;;;;5036238;28;20194;-79
2024/04/05 01:57:19;;;;;;;31.52;5.35;;;12.00;99.90;;;;;;5028371;28;20311;-81
2024/04/05 01:59:48;;;;;;;30.27;8.35;;;12.00;99.90;;;;;;5026941;28;20209;-79
2024/04/05 02:02:15;;;;;;;23.13;5.03;;;12.00;99.90;;;;;;5026299;28;20201;-81
2024/04/05 02:04:42;;;;;;;31.75;9.25;;;12.00;99.90;;;;;;5032996;28;20227;-79
2024/04/05 02:07:08;;;;;;;17.20;6.43;;;12.00;99.90;;;;;;5036422;28;20221;-79
2024/04/05 02:09:35;;;;;;;36.97;9.77;;;11.90;99.90;;;;;;5055039;28;20227;-79
2024/04/05 02:12:01;;;;;;;21.23;7.25;;;11.90;99.90;;;;;;5057237;28;20262;-78
2024/04/05 02:14:28;;;;;;;21.60;5.72;;;11.80;99.90;;;;;;5055712;28;20339;-78
2024/04/05 02:16:59;;;;;;;24.67;5.60;;;11.80;99.90;;;;;;5043700;28;20209;-78
2024/04/05 02:19:25;;;;;;;27.90;5.55;;;11.70;99.90;;;;;;5042762;28;20201;-78
2024/04/05 02:21:52;;;;;;;21.00;5.50;;;11.70;99.90;;;;;;5032668;28;20201;-79
2024/04/05 02:24:18;;;;;;;21.27;7.70;;;11.60;99.90;;;;;;5032249;28;20440;-79
2024/04/05 02:26:45;;;;;;;16.30;6.03;;;11.60;99.90;;;;;;5038080;28;20235;-82
2024/04/05 02:29:11;;;;;;;19.67;4.85;;;11.60;99.90;;;;;;5026105;28;20476;-80
2024/04/05 02:31:38;;;;;;;26.50;6.33;;;11.60;99.90;;;;;;5029172;28;20201;-79
2024/04/05 02:34:06;;;;;;;21.55;5.80;;;11.50;99.90;;;;;;5025261;28;20441;-79
2024/04/05 02:36:33;;;;;;;17.05;4.72;;;11.50;99.90;;;;;;5032764;28;20225;-79
2024/04/05 02:39:00;;;;;;;18.92;5.10;;;11.50;99.90;;;;;;5033279;28;20233;-78
2024/04/05 02:41:26;;;;;;;12.57;5.10;;;11.50;99.90;;;;;;5033198;28;20212;-79
2024/04/05 02:43:52;;;;;;;25.25;6.25;;;11.60;99.90;;;;;;5034884;28;20189;-79
2024/04/05 02:46:19;;;;;;;18.17;6.00;;;11.60;99.90;;;;;;5035115;28;20224;-80
2024/04/05 02:48:45;;;;;;;24.52;4.68;;;11.60;99.90;;;;;;5035359;28;20433;-81
2024/04/05 02:51:14;;;;;;;19.30;5.10;;;11.60;99.90;;;;;;5036417;28;20185;-79
2024/04/05 02:53:40;;;;;;;17.17;5.00;;;11.60;99.90;;;;;;5036073;28;20782;-79
2024/04/05 02:56:07;;;;;;;23.13;6.67;;;11.50;99.90;;;;;;5040997;28;20303;-79
2024/04/05 02:58:34;;;;;;;22.75;7.20;;;11.60;99.90;;;;;;5054143;28;20438;-79
2024/04/05 03:01:18;;;;;;;26.02;4.75;;;11.60;99.90;;;;;;5037183;28;20196;-80
2024/04/05 03:03:46;;;;;;;21.40;6.35;;;11.60;99.90;;;;;;5032519;28;20206;-81
2024/04/05 03:06:14;;;;;;;18.33;4.93;;;11.60;99.90;;;;;;5034324;28;20281;-78
2024/04/05 03:08:40;;;;;;;14.07;3.88;;;11.60;99.90;;;;;;5034809;28;20470;-77
2024/04/05 03:11:08;;;;;;;19.27;5.53;;;11.60;99.90;;;;;;5023501;28;20209;-79
2024/04/05 03:13:34;;;;;;;16.95;7.20;;;11.60;99.90;;;;;;5040246;28;20445;-79
2024/04/05 03:16:02;;;;;;;21.38;6.95;;;11.60;99.90;;;;;;5036400;28;20277;-79
2024/04/05 03:18:28;;;;;;;18.95;4.30;;;11.60;99.90;;;;;;5036966;28;20201;-79
2024/04/05 03:20:56;;;;;;;22.02;5.60;;;11.60;99.90;;;;;;5034901;28;20212;-79
2024/04/05 03:23:23;;;;;;;18.25;5.50;;;11.60;99.90;;;;;;5034787;28;20213;-78
2024/04/05 03:25:50;;;;;;;20.48;5.80;;;11.60;99.90;;;;;;5035557;28;20213;-79
2024/04/05 03:28:16;;;;;;;19.67;5.50;;;11.60;99.90;;;;;;5036039;28;20217;-77
2024/04/05 03:30:43;;;;;;;21.55;4.88;;;11.60;99.90;;;;;;5036294;28;20212;-81
2024/04/05 03:33:09;;;;;;;25.83;6.82;;;11.60;99.90;;;;;;5036401;28;20237;-78
2024/04/05 03:35:37;;;;;;;23.92;5.53;;;11.60;99.90;;;;;;5036109;28;20225;-77
2024/04/05 03:38:05;;;;;;;21.30;4.50;;;11.60;99.90;;;;;;5034361;28;20205;-79
2024/04/05 03:40:37;;;;;;;20.85;5.65;;;11.60;99.90;;;;;;5031856;28;20189;-81
2024/04/05 03:43:05;;;;;;;33.05;7.32;;;11.60;99.90;;;;;;5027569;28;20189;-80
2024/04/05 03:45:32;;;;;;;20.33;7.10;;;11.60;99.90;;;;;;5022454;28;20223;-81
2024/04/05 03:47:59;;;;;;;22.75;5.60;;;11.60;99.90;;;;;;5022577;28;20185;-81
2024/04/05 03:50:25;;;;;;;21.73;5.40;;;11.60;99.90;;;;;;5022430;28;20585;-81
2024/04/05 03:52:52;;;;;;;25.23;6.97;;;11.60;99.90;;;;;;5022052;28;20208;-82
2024/04/05 03:55:18;;;;;;;25.08;5.57;;;11.60;99.90;;;;;;5021550;28;20467;-80
2024/04/05 03:57:52;;;;;;;19.90;4.68;;;11.80;99.90;;;;;;5020446;28;20581;-81
2024/04/05 04:00:19;;;;;;;23.55;5.70;;;11.80;99.90;;;;;;5018118;28;20217;-81
2024/04/05 04:02:46;;;;;;;17.77;4.82;;;11.80;99.90;;;;;;5029643;28;20193;-79
2024/04/05 04:05:12;;;;;;;17.80;4.63;;;11.70;99.90;;;;;;5031325;28;20224;-79
2024/04/05 04:07:39;;;;;;;25.83;6.28;;;11.80;99.90;;;;;;5026657;28;20648;-80
2024/04/05 04:10:05;;;;;;;19.58;5.13;;;11.80;99.90;;;;;;5018752;28;20198;-80
2024/04/05 04:12:32;;;;;;;19.25;6.70;;;11.90;99.90;;;;;;5018782;28;20292;-80
2024/04/05 04:15:00;;;;;;;20.67;4.60;;;11.90;99.90;;;;;;5019525;28;20623;-79
2024/04/05 04:17:27;;;;;;;16.67;5.30;;;11.90;99.90;;;;;;5029651;28;20284;-79
2024/04/05 04:19:58;;;;;;;11.90;4.45;;;11.90;99.90;;;;;;5009819;28;20205;-79
2024/04/05 04:22:25;;;;;;;32.25;5.70;;;12.00;99.90;;;;;;5037067;28;20636;-80
2024/04/05 04:24:51;;;;;;;26.00;6.65;;;12.00;99.90;;;;;;5021691;28;20231;-80
2024/04/05 04:27:18;;;;;;;17.83;4.80;;;12.00;99.90;;;;;;5020240;28;20649;-81
2024/04/05 04:29:44;;;;;;;21.50;5.70;;;11.90;99.90;;;;;;5026159;28;20580;-81
2024/04/05 04:32:15;;;;;;;15.37;5.53;;;12.00;99.90;;;;;;5019133;28;20265;-80
2024/04/05 04:34:41;;;;;;;22.40;5.78;;;12.00;99.90;;;;;;5019613;28;20486;-81
2024/04/05 04:37:08;;;;;;;26.80;6.25;;;12.00;99.90;;;;;;5034733;28;20272;-79
2024/04/05 04:39:34;;;;;;;19.88;6.13;;;12.00;99.90;;;;;;5035883;28;20225;-79
2024/04/05 04:42:01;;;;;;;24.50;7.00;;;12.00;99.90;;;;;;5036153;28;20193;-79
2024/04/05 04:44:27;;;;;;;17.67;6.60;;;12.00;99.90;;;;;;5035713;28;20432;-78
2024/04/05 04:46:54;;;;;;;15.50;6.40;;;11.90;99.90;;;;;;5035568;28;20281;-79
2024/04/05 04:49:21;;;;;;;18.42;4.55;;;11.80;99.90;;;;;;5035492;28;20458;-79
2024/04/05 04:51:48;;;;;;;31.35;6.35;;;11.80;99.90;;;;;;5026455;28;20205;-81
2024/04/05 04:54:14;;;;;;;31.50;6.07;;;11.70;99.90;;;;;;5020506;28;20671;-80
2024/04/05 04:56:41;;;;;;;26.48;6.80;;;11.70;99.90;;;;;;5030625;28;20443;-78
2024/04/05 04:59:12;;;;;;;19.52;4.85;;;11.70;99.90;;;;;;5015784;28;20213;-80
2024/04/05 05:01:40;;;;;;;28.00;6.05;;;11.70;99.90;;;;;;5026659;28;20194;-81
2024/04/05 05:04:06;;;;;;;18.80;6.75;;;11.70;99.90;;;;;;5024152;28;20210;-81
2024/04/05 05:06:34;;;;;;;24.52;5.57;;;11.70;99.90;;;;;;5026279;28;20228;-79
2024/04/05 05:09:02;;;;;;;17.92;5.25;;;11.80;99.90;;;;;;5018675;28;20182;-83
2024/04/05 05:11:29;;;;;;;20.67;5.18;;;11.80;99.90;;;;;;5026668;28;20259;-79
2024/04/05 05:13:56;;;;;;;18.83;3.83;;;11.80;99.90;;;;;;5027440;28;20194;-80
2024/04/05 05:16:24;;;;;;;25.55;5.05;;;11.80;99.90;;;;;;5036551;28;20225;-82
2024/04/05 05:18:50;;;;;;;17.95;4.53;;;11.90;99.90;;;;;;5028949;28;20220;-80
2024/04/05 05:21:17;;;;;;;21.27;5.95;;;11.90;99.90;;;;;;5036309;28;20240;-80
2024/04/05 05:23:45;;;;;;;15.50;5.40;;;11.90;99.90;;;;;;5037875;28;20181;-80
2024/04/05 05:26:12;;;;;;;27.50;7.03;;;11.90;99.90;;;;;;5038009;28;20201;-81
2024/04/05 05:28:38;;;;;;;31.42;7.45;;;12.00;99.90;;;;;;5036693;28;20707;-79
2024/04/05 05:31:05;;;;;;;23.65;6.80;;;12.00;99.90;;;;;;5022503;28;20202;-83
2024/04/05 05:33:31;;;;;;;19.77;7.03;;;12.10;99.90;;;;;;5025906;28;20209;-82
2024/04/05 05:35:58;;;;;;;17.70;5.53;;;12.20;99.90;;;;;;5025365;28;20217;-82
2024/04/05 05:38:24;;;;;;;21.88;6.35;;;12.20;99.90;;;;;;5026100;28;20476;-81
2024/04/05 05:40:52;;;;;;;18.90;6.25;;;12.20;99.90;;;;;;5028784;28;20217;-82
2024/04/05 05:43:18;;;;;;;15.30;4.90;;;12.10;99.90;;;;;;5029053;28;20193;-82
2024/04/05 05:45:45;;;;;;;17.07;5.80;;;12.10;99.90;;;;;;5031147;28;20221;-80
2024/04/05 05:48:11;;;;;;;19.13;5.47;;;12.10;99.90;;;;;;5033385;28;20444;-81
2024/04/05 05:50:38;;;;;;;16.60;5.63;;;12.10;99.90;;;;;;5025489;28;20262;-80
2024/04/05 05:53:04;;;;;;;10.63;4.82;;;12.10;99.90;;;;;;5019304;28;20472;-81
2024/04/05 05:55:31;;;;;;;14.82;6.32;;;12.10;99.90;;;;;;5033550;28;20280;-80
2024/04/05 05:57:59;;;;;;;18.83;5.68;;;12.30;99.90;;;;;;5025732;28;20683;-80
2024/04/05 06:00:26;;;;;;;24.27;7.72;;;12.40;99.90;;;;;;5028093;28;20193;-81
2024/04/05 06:02:58;;;;;;;18.15;5.53;;;12.50;99.90;;;;;;5021022;28;20197;-78
2024/04/05 06:05:25;;;;;;;24.58;6.32;;;12.60;99.90;;;;;;5023431;28;20248;-81
2024/04/05 06:07:51;;;;;;;19.38;5.55;;;12.70;99.90;;;;;;5027895;28;20208;-78
2024/04/05 06:10:19;;;;;;;16.42;5.90;;;12.80;99.90;;;;;;5029773;28;20207;-80
2024/04/05 06:12:45;;;;;;;17.70;5.15;;;12.90;99.90;;;;;;5030277;28;20214;-78
2024/04/05 06:15:13;;;;;;;18.10;5.97;;;12.90;99.90;;;;;;5024016;28;20217;-79
2024/04/05 06:17:40;;;;;;;19.65;5.47;;;12.90;99.90;;;;;;5028181;28;20221;-79
2024/04/05 06:20:09;;;;;;;17.40;5.82;;;12.90;99.90;;;;;;5027447;28;20232;-82
2024/04/05 06:22:36;;;;;;;25.42;6.25;;;12.90;99.90;;;;;;5021302;28;20228;-81
2024/04/05 06:25:04;;;;;;;15.10;4.65;;;12.80;99.90;;;;;;5025694;28;20201;-81
2024/04/05 06:27:31;;;;;;;19.35;8.18;;;12.80;99.90;;;;;;5024208;28;20217;-80
2024/04/05 06:29:58;;;;;;;15.73;4.70;;;13.00;99.90;;;;;;5043591;28;20205;-80
2024/04/05 06:32:25;;;;;;;18.35;5.43;;;12.90;99.90;;;;;;5018932;28;20637;-79
2024/04/05 06:34:52;;;;;;;16.00;6.05;;;12.90;99.90;;;;;;5024677;28;20213;-80
2024/04/05 06:37:26;;;;;;;21.02;5.38;;;13.00;99.90;;;;;;5027907;28;20226;-79
2024/04/05 06:39:54;;;;;;;16.33;6.50;;;12.90;99.90;;;;;;5030290;28;20210;-82
2024/04/05 06:42:21;;;;;;;18.98;7.05;;;13.00;99.90;;;;;;5033673;28;20209;-82
2024/04/05 06:44:50;;;;;;;15.40;6.53;;;13.00;99.90;;;;;;5032446;28;20187;-80
2024/04/05 06:47:17;;;;;;;20.63;5.97;;;13.00;99.90;;;;;;5038299;28;20194;-79
2024/04/05 06:49:44;;;;;;;19.90;6.25;;;13.00;99.90;;;;;;5037573;28;20189;-79
2024/04/05 06:52:12;;;;;;;22.25;7.30;;;13.00;99.90;;;;;;5038167;28;20208;-79
2024/04/05 06:54:42;;;;;;;21.48;5.43;;;13.00;99.90;;;;;;5045336;28;20209;-83
2024/04/05 06:57:09;;;;;;;15.88;5.70;;;13.10;99.90;;;;;;5036009;28;20229;-80
2024/04/05 06:59:35;;;;;;;21.98;6.25;;;13.00;99.90;;;;;;5027896;28;20225;-81
2024/04/05 07:02:03;;;;;;;23.30;6.40;;;12.80;99.90;;;;;;5037023;28;20193;-80
2024/04/05 07:04:29;;;;;;;17.27;5.38;;;12.80;99.90;;;;;;5038284;28;20210;-79
2024/04/05 07:06:57;;;;;;;26.63;6.93;;;12.80;99.90;;;;;;5035410;28;20272;-79
2024/04/05 07:09:23;;;;;;;21.65;5.30;;;12.90;99.90;;;;;;5038059;28;20186;-80
2024/04/05 07:11:51;;;;;;;20.23;7.38;;;12.90;99.90;;;;;;5037541;28;20200;-79
2024/04/05 07:14:17;;;;;;;20.92;5.50;;;12.90;99.90;;;;;;5028779;28;20506;-80
2024/04/05 07:16:44;;;;;;;11.82;4.80;;;13.00;99.90;;;;;;5036738;28;20247;-81
2024/04/05 07:19:10;;;;;;;20.63;7.00;;;13.10;99.90;;;;;;5035871;28;20244;-80
2024/04/05 07:21:37;;;;;;;18.52;6.18;;;13.10;99.90;;;;;;5035598;28;20189;-80
2024/04/05 07:24:05;;;;;;;15.45;6.38;;;13.10;99.90;;;;;;5033096;28;20197;-83
2024/04/05 07:26:33;;;;;;;26.70;6.50;;;13.20;99.90;;;;;;5031727;28;20229;-81
2024/04/05 07:28:59;;;;;;;24.55;6.35;;;13.20;99.90;;;;;;5028733;28;20308;-83
2024/04/05 07:31:26;;;;;;;28.88;6.55;;;13.30;99.90;;;;;;5027800;28;20205;-84
2024/04/05 07:33:52;;;;;;;11.57;5.22;;;13.50;99.90;;;;;;5029104;28;20213;-81
2024/04/05 07:36:19;;;;;;;12.03;4.53;;;13.40;99.90;;;;;;5019795;28;20230;-80
2024/04/05 07:38:45;;;;;;;19.30;5.22;;;13.60;99.90;;;;;;5021771;28;20452;-82
2024/04/05 07:41:14;;;;;;;17.20;5.18;;;13.90;99.90;;;;;;5022276;28;20305;-82
2024/04/05 07:43:41;;;;;;;24.90;5.77;;;14.50;99.90;;;;;;5023526;28;20258;-79
2024/04/05 07:46:08;;;;;;;14.93;5.13;;;15.60;99.90;;;;;;5028554;28;20474;-79
2024/04/05 07:48:34;;;;;;;18.97;5.60;;;16.50;99.90;;;;;;5030124;28;20447;-82
2024/04/05 07:51:02;;;;;;;19.03;4.73;;;17.50;99.90;;;;;;5027659;28;20441;-80
2024/04/05 07:53:28;;;;;;;14.80;4.43;;;18.30;99.90;;;;;;5024116;28;20445;-80
2024/04/05 07:55:55;;;;;;;22.30;5.20;;;19.40;99.90;;;;;;5025114;28;20484;-81
2024/04/05 07:58:23;;;;;;;13.73;4.47;;;20.20;99.90;;;;;;5026764;28;20570;-80
2024/04/05 08:00:50;;;;;;;14.30;5.70;;;20.50;99.90;;;;;;5025439;28;20452;-80
2024/04/05 08:03:16;;;;;;;13.03;5.87;;;20.50;99.90;;;;;;5021950;28;20452;-81
2024/04/05 08:05:43;;;;;;;16.53;4.53;;;20.60;99.90;;;;;;5024693;28;20468;-78
2024/04/05 08:08:09;;;;;;;13.23;4.50;;;20.90;99.90;;;;;;5038810;28;20476;-78
2024/04/05 08:10:37;;;;;;;18.03;4.97;;;21.90;99.90;;;;;;5035316;28;20508;-81
2024/04/05 08:13:03;;;;;;;10.13;4.97;;;22.70;99.90;;;;;;5031042;28;20474;-80
2024/04/05 08:15:32;;;;;;;12.20;5.00;;;21.10;99.90;;;;;;5030420;28;20473;-81
2024/04/05 08:17:58;;;;;;;17.97;5.17;;;20.90;99.90;;;;;;5030745;28;20440;-79
2024/04/05 08:20:25;;;;;;;13.27;4.37;;;20.10;99.90;;;;;;5030016;28;20485;-79
2024/04/05 08:22:51;;;;;;;16.20;4.80;;;19.80;99.90;;;;;;5029348;28;20446;-80
2024/04/05 08:25:18;;;;;;;13.20;4.70;;;19.30;99.90;;;;;;5024528;28;20559;-82
2024/04/05 08:27:45;;;;;;;12.93;4.20;;;19.30;99.90;;;;;;5033839;28;20495;-80
2024/04/05 08:30:13;;;;;;;14.07;4.07;;;19.50;99.90;;;;;;5035368;28;20462;-85
2024/04/05 08:32:42;;;;;;;17.67;4.60;;;19.40;99.90;;;;;;5033648;28;20446;-82
2024/04/05 08:35:10;;;;;;;13.60;5.10;;;19.30;99.90;;;;;;5034473;28;20462;-80
2024/04/05 08:37:36;;;;;;;13.37;4.60;;;18.90;99.90;;;;;;5034450;28;20460;-78
2024/04/05 08:40:04;;;;;;;10.97;4.80;;;18.50;99.90;;;;;;5034336;28;20476;-79
2024/04/05 08:42:32;;;;;;;17.43;5.13;;;18.00;99.90;;;;;;5035570;28;20473;-79
2024/04/05 08:44:59;;;;;;;11.87;4.40;;;17.90;99.90;;;;;;5033183;28;20455;-82
2024/04/05 08:47:26;;;;;;;17.00;3.97;;;18.00;99.90;;;;;;5032734;28;20507;-79
2024/04/05 08:49:56;;;;;;;15.17;5.20;;;18.10;99.90;;;;;;5035093;28;20445;-80
2024/04/05 08:52:22;;;;;;;11.30;3.90;;;18.00;99.90;;;;;;5034577;28;20433;-80
2024/04/05 08:54:49;;;;;;;14.67;4.27;;;18.20;99.90;;;;;;5025887;28;20508;-79
2024/04/05 08:57:16;;;;;;;14.20;4.00;;;18.20;99.90;;;;;;5033801;28;20464;-78
2024/04/05 08:59:49;;;;;;;11.57;4.87;;;18.30;99.90;;;;;;5033325;28;20874;-81
2024/04/05 09:02:16;;;;;;;16.17;4.30;;;18.10;99.90;;;;;;5032112;28;20498;-80
2024/04/05 09:04:43;;;;;;;13.63;5.33;;;18.10;99.90;;;;;;5040966;28;20452;-82
2024/04/05 09:07:10;;;;;;;9.80;4.07;;;18.10;99.90;;;;;;5028470;28;20495;-80
2024/04/05 09:09:37;;;;;;;13.17;4.00;;;17.80;99.90;;;;;;5028347;28;20923;-81
2024/04/05 09:12:06;;;;;;;16.63;4.17;;;18.10;99.90;;;;;;5028408;28;20464;-80
2024/04/05 09:14:36;;;;;;;20.33;4.90;;;18.40;99.90;;;;;;5026855;28;20504;-78
2024/04/05 09:17:03;;;;;;;10.90;3.73;;;19.00;99.90;;;;;;5027090;28;20461;-80
2024/04/05 09:19:30;;;;;;;13.40;4.63;;;19.30;99.90;;;;;;5027759;28;20455;-82
2024/04/05 09:21:57;;;;;;;12.23;3.93;;;19.30;99.90;;;;;;5028661;28;20450;-81
2024/04/05 09:24:25;;;;;;;8.67;3.60;;;19.50;99.90;;;;;;5026410;28;20446;-80
2024/04/05 09:26:58;;;;;;;11.33;2.90;;;19.90;99.90;;;;;;5026388;28;20913;-81
2024/04/05 09:29:25;;;;;;;8.73;3.20;;;20.10;99.90;;;;;;5026678;28;20832;-79
2024/04/05 09:31:51;;;;;;;14.40;3.67;;;20.10;99.90;;;;;;5026538;28;20509;-81
2024/04/05 09:34:19;;;;;;;12.63;2.93;;;20.10;99.90;;;;;;5027525;28;20448;-79
2024/04/05 09:36:45;;;;;;;7.23;3.20;;;20.00;99.90;;;;;;5029121;28;20488;-80
2024/04/05 09:39:16;;;;;;;15.03;3.57;;;19.90;99.90;;;;;;5036615;28;20463;-80
2024/04/05 09:41:44;;;;;;;18.93;4.50;;;19.70;99.90;;;;;;5037501;28;20492;-78
2024/04/05 09:44:13;;;;;;;13.97;3.57;;;19.50;99.90;;;;;;5036191;28;20453;-81
2024/04/05 09:46:39;;;;;;;7.93;3.03;;;18.90;99.90;;;;;;5036173;28;20473;-80
2024/04/05 09:49:06;;;;;;;13.23;3.77;;;18.40;99.90;;;;;;5037871;28;20445;-79
2024/04/05 09:51:42;;;;;;;9.23;4.97;;;18.60;99.90;;;;;;5037500;28;20428;-80
2024/04/05 09:54:12;;;;;;;9.90;3.60;;;18.40;99.90;;;;;;5032462;28;20466;-79
2024/04/05 09:56:39;;;;;;;17.23;5.07;;;18.40;99.90;;;;;;5030908;28;20464;-79
2024/04/05 09:59:11;;;;;;;9.67;4.07;;;18.20;99.90;;;;;;5028500;28;20444;-81
2024/04/05 10:01:39;;;;;;;7.77;3.63;;;18.20;99.90;;;;;;5028467;28;20951;-81
2024/04/05 10:04:07;;;;;;;13.00;3.90;;;18.20;99.90;;;;;;5033356;28;20456;-78
2024/04/05 10:06:38;;;;;;;10.53;3.97;;;18.00;99.90;;;;;;5036178;28;20461;-79
2024/04/05 10:09:15;;;;;;;6.50;3.07;;;17.70;99.90;;;;;;5044883;28;20953;-79
2024/04/05 10:11:42;;;;;;;6.40;2.73;;;17.50;99.90;;;;;;5034302;28;20432;-80
2024/04/05 10:14:11;;;;;;;17.10;4.37;;;17.50;99.90;;;;;;5037535;28;20444;-79
2024/04/05 10:16:37;;;;;;;14.40;4.43;;;17.40;99.90;;;;;;5031438;28;20504;-81
2024/04/05 10:19:11;;;;;;;7.03;3.20;;;17.50;99.90;;;;;;5026873;28;20814;-81
2024/04/05 10:21:37;;;;;;;15.30;6.10;;;17.40;99.90;;;;;;5032593;28;20464;-79
2024/04/05 10:24:05;;;;;;;12.10;5.17;;;17.20;99.90;;;;;;5035829;28;20450;-81
2024/04/05 10:26:33;;;;;;;6.90;3.53;;;17.30;99.90;;;;;;5037504;28;20487;-78
2024/04/05 10:29:04;;;;;;;11.17;6.53;;;17.50;99.90;;;;;;5037180;28;20494;-79
2024/04/05 10:31:32;;;;;;;6.83;3.10;;;17.40;99.90;;;;;;5045267;28;20498;-77
2024/04/05 10:34:00;;;;;;;12.73;3.80;;;17.50;99.90;;;;;;5044978;28;20476;-78
2024/04/05 10:36:27;;;;;;;3.53;2.13;;;17.30;99.90;;;;;;5036778;28;20475;-79
2024/04/05 10:38:54;;;;;;;8.57;3.50;;;17.40;99.90;;;;;;5036969;28;20467;-80
2024/04/05 10:41:21;;;;;;;12.47;2.80;;;17.50;99.90;;;;;;5041425;28;20454;-81
2024/04/05 10:43:48;;;;;;;14.40;3.70;;;17.50;99.90;;;;;;5035790;28;20445;-81
2024/04/05 10:46:15;;;;;;;11.97;2.87;;;17.40;99.90;;;;;;5031693;28;20456;-82
2024/04/05 10:48:43;;;;;;;10.87;3.10;;;17.30;99.90;;;;;;5027828;28;20995;-81
2024/04/05 10:51:10;;;;;;;7.63;3.63;;;17.10;99.90;;;;;;5025578;28;20450;-82
2024/04/05 10:53:36;;;;;;;9.37;3.90;;;17.00;99.90;;;;;;5026657;28;20536;-82
2024/04/05 10:56:03;;;;;;;7.47;2.80;;;16.80;99.90;;;;;;5024353;28;20467;-80
2024/04/05 10:58:31;;;;;;;7.90;3.53;;;16.80;99.90;;;;;;5022658;28;20447;-81
2024/04/05 11:00:57;;;;;;;8.27;2.83;;;16.70;99.90;;;;;;5028514;28;20419;-78
2024/04/05 11:03:24;;;;;;;8.67;3.57;;;16.60;99.90;;;;;;5034334;28;20449;-79
2024/04/05 11:06:02;;;;;;;9.40;3.00;;;16.50;99.90;;;;;;5034246;28;20493;-80
2024/04/05 11:08:29;;;;;;;11.20;3.10;;;16.50;99.90;;;;;;5034096;28;20484;-80
2024/04/05 11:10:55;;;;;;;5.07;3.30;;;16.40;99.90;;;;;;5033217;28;20450;-79
2024/04/05 11:13:22;;;;;;;5.60;2.57;;;16.30;99.90;;;;;;5032382;28;20482;-79
2024/04/05 11:15:59;;;;;;;16.13;4.97;;;16.30;99.90;;;;;;5033677;28;20458;-80
2024/04/05 11:18:26;;;;;;;7.50;3.10;;;16.40;99.90;;;;;;5031156;28;20442;-82
2024/04/05 11:20:54;;;;;;;11.30;3.80;;;16.50;99.90;;;;;;5029004;28;20504;-82
2024/04/05 11:23:21;;;;;;;12.03;4.67;;;16.50;99.90;;;;;;5025909;28;20517;-81
2024/04/05 11:25:51;;;;;;;9.07;4.43;;;16.50;99.90;;;;;;5022994;28;20480;-81
2024/04/05 11:28:22;;;;;;;12.77;3.97;;;16.60;99.90;;;;;;5031838;28;20459;-79
2024/04/05 11:30:48;;;;;;;12.80;4.00;;;16.60;99.90;;;;;;5033170;28;20519;-79
2024/04/05 11:33:15;;;;;;;7.60;3.87;;;16.60;99.90;;;;;;5031683;28;20442;-79
2024/04/05 11:35:43;;;;;;;9.03;3.77;;;16.60;99.90;;;;;;5030397;28;20471;-81
2024/04/05 11:38:12;;;;;;;5.57;2.67;;;16.70;99.90;;;;;;5030081;28;20487;-81
2024/04/05 11:40:38;;;;;;;14.20;4.03;;;16.70;99.90;;;;;;5024110;28;20489;-80
2024/04/05 11:43:08;;;;;;;9.50;4.40;;;16.60;99.90;;;;;;5028749;28;20458;-83
2024/04/05 11:45:34;;;;;;;6.90;3.10;;;16.40;99.90;;;;;;5020571;28;20503;-80
2024/04/05 11:48:01;;;;;;;8.10;3.33;;;16.30;99.90;;;;;;5023056;28;20484;-79
2024/04/05 11:50:28;;;;;;;8.10;3.53;;;16.30;99.90;;;;;;5020575;28;20936;-81
2024/04/05 11:52:54;;;;;;;6.07;3.30;;;16.30;99.90;;;;;;5017183;28;20567;-79
2024/04/05 11:55:22;;;;;;;9.37;4.03;;;16.20;99.90;;;;;;5013164;28;20461;-80
2024/04/05 11:57:49;;;;;;;10.87;3.33;;;16.30;99.90;;;;;;5024700;28;20499;-81
2024/04/05 12:00:16;;;;;;;9.47;4.53;;;16.40;99.90;;;;;;5021898;28;20876;-81
2024/04/05 12:02:43;;;;;;;8.83;3.70;;;16.30;99.90;;;;;;5030761;28;20448;-81
2024/04/05 12:05:09;;;;;;;10.40;4.03;;;16.30;99.90;;;;;;5025321;28;20470;-80
2024/04/05 12:07:36;;;;;;;17.80;5.93;;;16.20;99.90;;;;;;5029922;28;20488;-80
2024/04/05 12:10:03;;;;;;;11.57;3.37;;;16.20;99.90;;;;;;5027163;28;20458;-79
2024/04/05 12:12:31;;;;;;;7.00;2.73;;;16.30;99.90;;;;;;5030105;28;20456;-78
2024/04/05 12:14:57;;;;;;;14.17;4.37;;;16.40;99.90;;;;;;5035053;28;20433;-79
2024/04/05 12:17:24;;;;;;;10.20;3.80;;;16.50;99.90;;;;;;5036443;28;20461;-79
2024/04/05 12:19:50;;;;;;;5.47;2.27;;;16.50;99.90;;;;;;5036513;28;20446;-81
2024/04/05 12:22:17;;;;;;;6.87;3.17;;;16.60;99.90;;;;;;5029910;28;20449;-81
2024/04/05 12:24:46;;;;;;;5.17;3.03;;;16.70;99.90;;;;;;5023381;28;20459;-81
2024/04/05 12:27:13;;;;;;;4.30;2.37;;;16.50;99.90;;;;;;5016298;28;20451;-81
2024/04/05 12:29:45;;;;;;;5.63;2.40;;;16.40;99.90;;;;;;5024672;28;20472;-82
2024/04/05 12:32:12;;;;;;;8.40;2.80;;;16.40;99.90;;;;;;5027019;28;20500;-80
2024/04/05 12:34:37;;;;;;;5.07;3.00;;;16.40;99.90;;;;;;5028877;28;20438;-82
2024/04/05 12:37:08;;;;;;;2.90;2.13;;;16.40;99.90;;;;;;5029811;28;20487;-81
2024/04/05 12:39:34;;;;;;;8.83;2.80;;;16.20;99.90;;;;;;5029666;28;20434;-82